• Join FlightAware (Why Join?)
  • Login
  • US Flag 
04:28PM EST


 

Airport Tracker/Info


-or-


 

Live Flight TrackerFlight Track Log ✈ ASP298 ✈ 08-Nov-2013 ✈ CYYC - KPSP

Flight Track Log - Related Links

Times and Time Zones

All times are in EST time to prevent confusion due to time zone crossing. See the ASP298 flight status page for this flight to view local times or setup timezone preferences in your user account.

Time Position Orientation Groundspeed Altitude Reporting Facility
EST Latitude Longitude Course Direction KTS MPH feet Rate Location/Type
11:33AM 51.1000 -114.0667 175° South 150 173 3,900  Level Edmonton Center
11:34AM 51.1167 -114.1167 298° West 180 207 7,400 2,760 Climbing Edmonton Center
11:35AM 51.0500 -114.1667 205° Southwest 260 299 9,500 2,400 Climbing Edmonton Center
11:36AM 50.9667 -114.1500 173° South 300 345 12,200 2,640 Climbing Edmonton Center
11:37AM 50.9000 -114.1333 171° South 310 357 14,800 2,700 Climbing Edmonton Center
11:38AM 50.8000 -114.1167 174° South 330 380 17,600 2,880 Climbing Edmonton Center
11:39AM 50.4395 -114.1489 175° South  Level Estimated
11:39AM 50.7000 -114.0833 168° South 350 403 20,600  Level Edmonton Center
11:40AM 50.6167 -114.0667 173° South 350 403 23,400 2,880 Climbing Edmonton Center
11:41AM 50.5167 -114.0500 174° South 340 391 26,400 2,460 Climbing Edmonton Center
11:42AM 50.4167 -114.0333 174° South 340 391 28,400 1,800 Climbing Edmonton Center
11:43AM 50.3167 -114.0167 174° South 350 403 30,100 1,320 Climbing Edmonton Center
11:44AM 50.2167 -113.9833 168° South 370 426 31,100 1,080 Climbing Edmonton Center
11:45AM 50.1167 -113.9667 174° South 380 437 32,300 1,140 Climbing Edmonton Center
11:46AM 50.0000 -113.9500 175° South 390 449 33,400 1,080 Climbing Edmonton Center
11:47AM 49.9000 -113.9333 174° South 390 449 34,500 1,140 Climbing Edmonton Center
11:48AM 49.7833 -113.9000 170° South 390 449 35,700 1,140 Climbing Edmonton Center
11:49AM 49.6833 -113.8833 174° South 380 437 36,800 1,020 Climbing Edmonton Center
11:50AM 49.5667 -113.8667 175° South 380 437 37,800 900 Climbing Edmonton Center
11:51AM 49.4667 -113.8667 180° South 380 437 38,700 900 Climbing Edmonton Center
11:52AM 49.3667 -113.8500 174° South 390 449 39,600 720 Climbing Edmonton Center
11:53AM 49.2500 -113.8167 169° South 380 437 40,200 180 Climbing Edmonton Center
11:54AM 49.1500 -113.8000 174° South 390 449 40,000 -120 Descending Edmonton Center
11:55AM 49.0333 -113.7833 175° South 410 472 40,000  Level Edmonton Center
11:56AM 48.9167 -113.7667 175° South 420 483 40,000  Level Edmonton Center
11:57AM 48.8000 -113.7333 169° South 430 495 40,000  Level Edmonton Center
11:58AM 48.6833 -113.7167 175° South 430 495 40,000  Level Edmonton Center
11:59AM 48.6594 -113.6825 137° Southeast 434 499 40,000  Level Salt Lake Center
12:00PM 48.5378 -113.6606 173° South 438 504 40,000  Level Salt Lake Center
12:01PM 48.4153 -113.6406 174° South 440 506 40,000  Level Salt Lake Center
12:02PM 48.2933 -113.6194 173° South 441 507 40,000  Level Salt Lake Center
12:03PM 48.1731 -113.5978 173° South 435 501 40,000  Level Salt Lake Center
12:04PM 48.0533 -113.5767 173° South 432 497 40,000 -60 Level Salt Lake Center
12:05PM 47.9083 -113.5519 173° South 434 499 39,900  Descending Salt Lake Center
12:06PM 47.7892 -113.5311 173° South 432 497 40,000  Climbing Salt Lake Center
12:07PM 47.6697 -113.5122 174° South 430 495 40,000  Level Salt Lake Center
12:08PM 47.5497 -113.4917 173° South 434 499 40,000  Level Salt Lake Center
12:09PM 47.4281 -113.4703 173° South 438 504 40,000  Level Salt Lake Center
12:10PM 47.3064 -113.4506 174° South 439 505 40,000  Level Salt Lake Center
12:11PM 47.1822 -113.4289 173° South 437 503 40,000  Level Salt Lake Center
12:12PM 47.0419 -113.4064 174° South 433 498 40,000  Level Salt Lake Center
12:13PM 46.9231 -113.3864 173° South 431 496 40,000  Level Salt Lake Center
12:14PM 46.8044 -113.3664 173° South 430 495 40,000  Level Salt Lake Center
12:15PM 46.6844 -113.3467 174° South 432 497 40,000  Level Salt Lake Center
12:16PM 46.5650 -113.3286 174° South 432 497 40,000  Level Salt Lake Center
12:17PM 46.4475 -113.3083 173° South 429 494 40,000  Level Salt Lake Center
12:19PM 46.3286 -113.2886 173° South 430 495 40,000  Level Salt Lake Center
12:20PM 46.1844 -113.2661 174° South 434 499 40,000  Level Salt Lake Center
12:21PM 46.0564 -113.2453 174° South 448 516 40,000  Level Salt Lake Center
12:22PM 45.9358 -113.2247 173° South 434 499 40,000  Level Salt Lake Center
12:23PM 45.8131 -113.2056 174° South 436 502 40,000  Level Salt Lake Center
12:24PM 45.6769 -113.1833 173° South 445 512 40,000  Level Salt Lake Center
12:25PM 45.5528 -113.1633 174° South 443 510 40,000  Level Salt Lake Center
12:26PM 45.4297 -113.1431 173° South 439 505 40,000  Level Salt Lake Center
12:27PM 45.3056 -113.1247 174° South 439 505 40,000  Level Salt Lake Center
12:28PM 45.1906 -113.1056 173° South 437 503 40,000  Level Salt Lake Center
12:29PM 45.0553 -113.0839 174° South 439 505 40,000  Level Salt Lake Center
12:30PM 44.9381 -113.0664 174° South 443 510 40,000  Level Salt Lake Center
12:31PM 44.8017 -113.0456 174° South 441 507 40,000  Level Salt Lake Center
12:32PM 44.6833 -113.0264 173° South 448 516 40,000  Level Salt Lake Center
12:33PM 44.5453 -113.0058 174° South 449 517 40,000  Level Salt Lake Center
12:34PM 44.4267 -112.9881 174° South 448 516 40,000  Level Salt Lake Center
12:35PM 44.2858 -112.9664 174° South 456 525 40,000  Level Salt Lake Center
12:36PM 44.1683 -112.9489 174° South 450 518 40,000  Level Salt Lake Center
12:37PM 44.0306 -112.9275 174° South 446 513 40,000  Level Salt Lake Center
12:38PM 43.9144 -112.9100 174° South 442 509 40,000  Level Salt Lake Center
12:39PM 43.7819 -112.8908 174° South 432 497 40,000  Level Salt Lake Center
12:40PM 43.6686 -112.8739 174° South 429 494 40,000  Level Salt Lake Center
12:41PM 43.5372 -112.8556 174° South 427 491 40,000  Level Salt Lake Center
12:42PM 43.4242 -112.8392 174° South 427 491 40,000  Level Salt Lake Center
12:43PM 43.3075 -112.8208 173° South 438 504 40,000  Level Salt Lake Center
12:44PM 43.1708 -112.8019 174° South 442 509 40,000  Level Salt Lake Center
12:45PM 43.0547 -112.7842 174° South 441 507 40,000  Level Salt Lake Center
12:46PM 42.9175 -112.7644 174° South 441 507 40,000  Level Salt Lake Center
12:47PM 42.8017 -112.7478 174° South 439 505 40,000  Level Salt Lake Center
12:48PM 42.6631 -112.7281 174° South 433 498 40,000  Level Salt Lake Center
12:50PM 42.5436 -112.7106 174° South 432 497 40,000  Level Salt Lake Center
12:51PM 42.4258 -112.6947 174° South 427 491 40,000  Level Salt Lake Center
12:52PM 42.3069 -112.6764 173° South 430 495 40,000  Level Salt Lake Center
12:53PM 42.1875 -112.6608 174° South 432 497 40,000  Level Salt Lake Center
12:54PM 42.0692 -112.6444 174° South 429 494 40,000  Level Salt Lake Center
12:55PM 41.9267 -112.6242 174° South 430 495 40,000  Level Salt Lake Center
12:56PM 41.8083 -112.6086 174° South 430 495 40,000  Level Salt Lake Center
12:57PM 41.6925 -112.5922 174° South 424 488 40,000  Level Salt Lake Center
12:58PM 41.5792 -112.5761 174° South 415 478 40,000  Level Salt Lake Center
12:59PM 41.4658 -112.5606 174° South 411 473 40,000  Level Salt Lake Center
01:00PM 41.3531 -112.5450 174° South 410 472 40,000  Level Salt Lake Center
01:01PM 41.2167 -112.5322 176° South 409 471 40,000  Level Salt Lake Center
01:02PM 41.1028 -112.5397 183° South 411 473 40,000  Level Salt Lake Center
01:03PM 40.9883 -112.5428 181° South 415 478 40,000  Level Salt Lake Center
01:04PM 40.8728 -112.5481 182° South 420 483 40,000  Level Salt Lake Center
01:05PM 40.7583 -112.5528 182° South 414 476 40,000  Level Salt Lake Center
01:06PM 40.6208 -112.5583 182° South 413 475 40,000  Level Salt Lake Center
01:07PM 40.5050 -112.5631 182° South 417 480 40,000  Level Salt Lake Center
01:08PM 40.3900 -112.5686 182° South 416 479 40,000  Level Salt Lake Center
01:09PM 40.2747 -112.5719 181° South 415 478 40,000  Level Salt Lake Center
01:10PM 40.1594 -112.5769 182° South 414 476 40,000  Level Salt Lake Center
01:11PM 40.0444 -112.5814 182° South 414 476 40,000  Level Salt Lake Center
01:12PM 39.9097 -112.6047 188° South 410 472 40,000  Level Salt Lake Center
01:13PM 39.8053 -112.6497 198° South 398 458 40,000  Level Salt Lake Center
01:14PM 39.7014 -112.6897 197° South 400 460 40,000  Level Salt Lake Center
01:15PM 39.5961 -112.7333 198° South 398 458 40,000  Level Salt Lake Center
01:16PM 39.4903 -112.7664 194° South 391 450 40,000  Level Salt Lake Center
01:17PM 39.3639 -112.8208 198° South 398 458 40,000  Level Salt Lake Center
01:18PM 39.2578 -112.8625 197° South 400 460 40,000  Level Salt Lake Center
01:19PM 39.1508 -112.9053 197° South 403 464 40,000  Level Salt Lake Center
01:20PM 39.0456 -112.9464 197° South 398 458 40,000  Level Salt Lake Center
01:22PM 38.9392 -112.9867 196° South 399 459 40,000  Level Salt Lake Center
01:23PM 38.8319 -113.0258 196° South 400 460 40,000  Level Salt Lake Center
01:24PM 38.7253 -113.0719 199° South 404 465 40,000  Level Salt Lake Center
01:25PM 38.5956 -113.1181 196° South 404 465 40,000  Level Salt Lake Center
01:26PM 38.4883 -113.1631 198° South 406 467 40,000  Level Salt Lake Center
01:27PM 38.3797 -113.2042 197° South 407 468 40,000  Level Salt Lake Center
01:28PM 38.2703 -113.2447 196° South 410 472 40,000  Level Salt Lake Center
01:29PM 38.1619 -113.2864 197° South 409 471 40,000  Level Salt Lake Center
01:30PM 38.0528 -113.3289 197° South 412 474 40,000  Level Salt Lake Center
01:31PM 37.9211 -113.3781 196° South 414 476 40,000  Level Salt Lake Center
01:32PM 37.8200 -113.4400 206° Southwest 407 468 40,000  Level Salt Lake Center
01:33PM 37.7206 -113.5081 208° Southwest 408 470 40,000  Level Salt Lake Center
01:34PM 37.5803 -113.6017 208° Southwest 411 473 40,000  Level Los Angeles Center
01:35PM 37.5194 -113.6417 208° Southwest 411 473 40,000  Level Salt Lake Center
01:36PM 37.3992 -113.7231 208° Southwest 411 473 40,000  Level Salt Lake Center
01:36PM 37.3594 -113.7489 207° Southwest 410 472 40,000  Level Los Angeles Center
01:37PM 37.2586 -113.8153 208° Southwest 411 473 40,000  Level Los Angeles Center
01:39PM 37.1614 -113.8789 208° Southwest 401 461 40,000  Level Los Angeles Center
01:40PM 37.0489 -113.9519 207° Southwest 389 448 40,000  Level Los Angeles Center
01:41PM 36.9531 -114.0131 207° Southwest 386 444 40,000  Level Los Angeles Center
01:42PM 36.8575 -114.0714 206° Southwest 384 442 40,000  Level Los Angeles Center
01:43PM 36.7642 -114.1347 209° Southwest 382 440 40,000  Level Los Angeles Center
01:44PM 36.6742 -114.2014 211° Southwest 381 438 40,000  Level Los Angeles Center
01:45PM 36.5783 -114.2558 205° Southwest 379 436 40,000  Level Los Angeles Center
01:46PM 36.4656 -114.3286 207° Southwest 378 435 40,000  Level Los Angeles Center
01:47PM 36.3739 -114.3894 208° Southwest 375 432 40,000 -240 Level Los Angeles Center
01:48PM 36.2803 -114.4486 207° Southwest 375 432 39,500 -960 Descending Los Angeles Center
01:49PM 36.1844 -114.5100 207° Southwest 383 441 38,100 -1,380 Descending Los Angeles Center
01:50PM 36.0817 -114.5753 207° Southwest 404 465 36,700 -1,380 Descending Los Angeles Center
01:51PM 35.9756 -114.6439 208° Southwest 424 488 35,300 -1,260 Descending Los Angeles Center
01:52PM 35.8675 -114.7125 207° Southwest 432 497 34,100 -1,260 Descending Los Angeles Center
01:53PM 35.7372 -114.7947 207° Southwest 435 501 32,700 -1,020 Descending Los Angeles Center
01:54PM 35.6297 -114.8631 207° Southwest 433 498 32,000 -360 Descending Los Angeles Center
01:55PM 35.5208 -114.9322 207° Southwest 438 504 32,000  Level Los Angeles Center
01:56PM 35.4189 -114.9972 207° Southwest 420 483 32,000 -60 Level Los Angeles Center
01:57PM 35.3172 -115.0603 207° Southwest 410 472 31,900 -720 Descending Los Angeles Center
01:58PM 35.2169 -115.1222 207° Southwest 406 467 30,600 -1,380 Descending Los Angeles Center
01:59PM 35.0975 -115.1939 206° Southwest 398 458 29,100 -1,320 Descending Los Angeles Center
02:00PM 34.9942 -115.2364 199° South 394 453 27,900 -1,260 Descending Los Angeles Center
02:01PM 34.8947 -115.2792 199° South 383 441 26,600 -1,260 Descending Los Angeles Center
02:02PM 34.7958 -115.3225 200° South 378 435 25,400 -1,260 Descending Los Angeles Center
02:03PM 34.6947 -115.3658 199° South 383 441 24,100 -720 Descending Los Angeles Center
02:04PM 34.5806 -115.4172 200° South 413 475 24,000 -60 Descending Los Angeles Center
02:05PM 34.4697 -115.4653 200° South 422 486 24,000 -60 Level Los Angeles Center
02:06PM 34.3369 -115.5239 200° South 424 488 23,900 -1,140 Descending Los Angeles Center
02:07PM 34.2503 -115.6103 219° Southwest 409 471 21,700 -2,340 Descending Los Angeles Center
02:09PM 34.1744 -115.6983 224° Southwest 385 443 19,100 -2,580 Descending Los Angeles Center
02:10PM 34.1003 -115.7806 223° Southwest 366 421 16,400 -2,520 Descending Los Angeles Center
02:11PM 34.0169 -115.8461 213° Southwest 360 414 13,900 -2,400 Descending Los Angeles Center
02:12PM 33.9392 -115.9072 213° Southwest 345 397 11,500 -1,440 Descending Los Angeles Center
02:13PM 33.8961 -116.0211 246° West 334 384 11,000 -300 Descending Los Angeles Center
02:14PM 33.8883 -116.1292 265° West 328 377 10,900 -1,020 Descending Los Angeles Center
02:15PM 33.8497 -116.2117 241° Southwest 298 343 8,900 -2,100 Descending Los Angeles Center
02:16PM 33.8153 -116.2908 242° Southwest 281 323 6,600 -1,800 Descending Los Angeles Center
02:18PM 33.7500 -116.3667 224° Southwest 201 231 3,800 -1,560 Descending Southern California TRACON
02:19PM 33.7500 -116.4167 270° West 178 205 2,400 -1,320 Descending Southern California TRACON
02:20PM 33.7833 -116.4667 309° West 152 175 1,300 -840 Descending Southern California TRACON
02:21PM 33.8167 -116.4833 337° Northwest 135 155 800 -540 Descending Southern California TRACON
02:23PM 33.8167 -116.5000 253° West  Level FlightAware Approximate
02:30PM 33.8297 -116.5067 253° West  Level Estimated